sensor_id;sensor_type;location;lat;lon;timestamp;temperature;humidity
71291;DHT22;59073;51.994;4.448;2022-12-07T00:11:27;6.58;79.07
71291;DHT22;59073;51.994;4.448;2022-12-07T00:14:42;6.52;79.37
71291;DHT22;59073;51.994;4.448;2022-12-07T00:17:46;6.41;79.26
71291;DHT22;59073;51.994;4.448;2022-12-07T00:20:54;6.39;79.91
71291;DHT22;59073;51.994;4.448;2022-12-07T00:23:52;6.56;79.88
71291;DHT22;59073;51.994;4.448;2022-12-07T00:26:36;6.42;79.53
71291;DHT22;59073;51.994;4.448;2022-12-07T00:29:27;6.41;79.78
71291;DHT22;59073;51.994;4.448;2022-12-07T00:32:26;6.46;79.78
71291;DHT22;59073;51.994;4.448;2022-12-07T00:35:00;6.48;79.61
71291;DHT22;59073;51.994;4.448;2022-12-07T00:37:32;6.49;79.29
71291;DHT22;59073;51.994;4.448;2022-12-07T00:40:08;6.45;78.98
71291;DHT22;59073;51.994;4.448;2022-12-07T00:42:56;6.35;78.70
71291;DHT22;59073;51.994;4.448;2022-12-07T00:46:02;6.21;78.62
71291;DHT22;59073;51.994;4.448;2022-12-07T00:48:46;6.11;79.48
71291;DHT22;59073;51.994;4.448;2022-12-07T00:55:09;5.94;80.58
71291;DHT22;59073;51.994;4.448;2022-12-07T00:58:16;5.93;79.96
71291;DHT22;59073;51.994;4.448;2022-12-07T01:01:49;5.84;80.28
71291;DHT22;59073;51.994;4.448;2022-12-07T01:04:20;5.86;80.94
71291;DHT22;59073;51.994;4.448;2022-12-07T01:06:53;5.78;81.31
71291;DHT22;59073;51.994;4.448;2022-12-07T01:09:24;5.80;81.41
71291;DHT22;59073;51.994;4.448;2022-12-07T01:11:52;5.87;81.25
71291;DHT22;59073;51.994;4.448;2022-12-07T01:14:52;5.89;80.87
71291;DHT22;59073;51.994;4.448;2022-12-07T01:17:54;5.87;80.72
71291;DHT22;59073;51.994;4.448;2022-12-07T01:21:02;5.91;80.41
71291;DHT22;59073;51.994;4.448;2022-12-07T01:23:47;5.86;81.20
71291;DHT22;59073;51.994;4.448;2022-12-07T01:26:37;5.97;81.42
71291;DHT22;59073;51.994;4.448;2022-12-07T01:29:24;6.01;80.29
71291;DHT22;59073;51.994;4.448;2022-12-07T01:32:18;5.90;79.47
71291;DHT22;59073;51.994;4.448;2022-12-07T01:35:24;5.77;79.25
71291;DHT22;59073;51.994;4.448;2022-12-07T01:38:00;5.62;78.33
71291;DHT22;59073;51.994;4.448;2022-12-07T01:44:27;5.09;79.91
71291;DHT22;59073;51.994;4.448;2022-12-07T01:47:23;4.73;79.79
71291;DHT22;59073;51.994;4.448;2022-12-07T01:50:10;4.39;85.04
71291;DHT22;59073;51.994;4.448;2022-12-07T01:55:38;5.40;85.85
71291;DHT22;59073;51.994;4.448;2022-12-07T01:58:16;5.74;84.96
71291;DHT22;59073;51.994;4.448;2022-12-07T02:01:02;5.97;83.92
71291;DHT22;59073;51.994;4.448;2022-12-07T02:03:43;6.14;83.60
71291;DHT22;59073;51.994;4.448;2022-12-07T02:06:37;6.18;82.78
71291;DHT22;59073;51.994;4.448;2022-12-07T02:09:34;6.15;82.01
71291;DHT22;59073;51.994;4.448;2022-12-07T02:12:25;6.17;81.67
71291;DHT22;59073;51.994;4.448;2022-12-07T02:15:11;6.21;81.33
71291;DHT22;59073;51.994;4.448;2022-12-07T02:21:29;6.27;80.90
71291;DHT22;59073;51.994;4.448;2022-12-07T02:27:38;6.24;80.40
71291;DHT22;59073;51.994;4.448;2022-12-07T02:30:41;6.20;80.60
71291;DHT22;59073;51.994;4.448;2022-12-07T02:37:09;6.05;79.83
71291;DHT22;59073;51.994;4.448;2022-12-07T02:39:53;6.01;79.61
71291;DHT22;59073;51.994;4.448;2022-12-07T02:42:37;5.94;79.47
71291;DHT22;59073;51.994;4.448;2022-12-07T02:45:15;5.81;81.14
71291;DHT22;59073;51.994;4.448;2022-12-07T02:47:51;5.94;81.47
71291;DHT22;59073;51.994;4.448;2022-12-07T02:54:26;5.77;81.69
71291;DHT22;59073;51.994;4.448;2022-12-07T03:00:24;5.89;82.45
71291;DHT22;59073;51.994;4.448;2022-12-07T03:03:05;5.89;81.48
71291;DHT22;59073;51.994;4.448;2022-12-07T03:16:02;6.38;80.66
71291;DHT22;59073;51.994;4.448;2022-12-07T03:36:33;5.93;80.96
71291;DHT22;59073;51.994;4.448;2022-12-07T03:43:08;6.11;80.23
71291;DHT22;59073;51.994;4.448;2022-12-07T03:52:25;6.28;78.85
71291;DHT22;59073;51.994;4.448;2022-12-07T03:55:22;6.31;78.66
71291;DHT22;59073;51.994;4.448;2022-12-07T03:58:02;6.35;78.56
71291;DHT22;59073;51.994;4.448;2022-12-07T04:00:54;6.45;78.26
71291;DHT22;59073;51.994;4.448;2022-12-07T04:03:52;6.53;78.03
71291;DHT22;59073;51.994;4.448;2022-12-07T04:06:20;6.59;77.96
71291;DHT22;59073;51.994;4.448;2022-12-07T04:08:48;6.64;77.62
71291;DHT22;59073;51.994;4.448;2022-12-07T04:11:27;6.56;77.42
71291;DHT22;59073;51.994;4.448;2022-12-07T04:13:58;6.41;77.19
71291;DHT22;59073;51.994;4.448;2022-12-07T04:17:10;6.25;77.73
71291;DHT22;59073;51.994;4.448;2022-12-07T04:19:57;6.27;77.76
71291;DHT22;59073;51.994;4.448;2022-12-07T04:22:48;6.20;77.73
71291;DHT22;59073;51.994;4.448;2022-12-07T04:25:27;6.08;77.70
71291;DHT22;59073;51.994;4.448;2022-12-07T04:27:56;5.94;77.43
71291;DHT22;59073;51.994;4.448;2022-12-07T04:30:23;5.81;77.72
71291;DHT22;59073;51.994;4.448;2022-12-07T04:32:54;5.77;78.18
71291;DHT22;59073;51.994;4.448;2022-12-07T04:35:30;5.70;78.29
71291;DHT22;59073;51.994;4.448;2022-12-07T04:38:08;5.67;78.22
71291;DHT22;59073;51.994;4.448;2022-12-07T04:44:08;5.25;79.04
71291;DHT22;59073;51.994;4.448;2022-12-07T04:50:12;5.35;79.27
71291;DHT22;59073;51.994;4.448;2022-12-07T04:53:12;5.39;79.17
71291;DHT22;59073;51.994;4.448;2022-12-07T05:02:43;5.09;78.51
71291;DHT22;59073;51.994;4.448;2022-12-07T05:05:59;4.99;78.84
71291;DHT22;59073;51.994;4.448;2022-12-07T05:09:20;5.04;78.95
71291;DHT22;59073;51.994;4.448;2022-12-07T05:15:23;4.78;79.04
71291;DHT22;59073;51.994;4.448;2022-12-07T05:18:16;4.71;81.39
71291;DHT22;59073;51.994;4.448;2022-12-07T05:21:02;4.85;81.45
71291;DHT22;59073;51.994;4.448;2022-12-07T05:30:26;5.49;80.32
71291;DHT22;59073;51.994;4.448;2022-12-07T05:33:04;5.59;79.51
71291;DHT22;59073;51.994;4.448;2022-12-07T05:36:42;5.63;79.52
71291;DHT22;59073;51.994;4.448;2022-12-07T05:49:28;4.98;79.56
71291;DHT22;59073;51.994;4.448;2022-12-07T05:52:44;5.07;79.58
71291;DHT22;59073;51.994;4.448;2022-12-07T05:55:27;5.01;79.20
71291;DHT22;59073;51.994;4.448;2022-12-07T06:13:16;4.44;78.57
71291;DHT22;59073;51.994;4.448;2022-12-07T06:17:05;4.29;78.87
71291;DHT22;59073;51.994;4.448;2022-12-07T06:19:47;4.24;78.77
71291;DHT22;59073;51.994;4.448;2022-12-07T06:22:13;4.19;78.75
71291;DHT22;59073;51.994;4.448;2022-12-07T06:24:44;3.99;78.52
71291;DHT22;59073;51.994;4.448;2022-12-07T06:27:12;3.78;78.12
71291;DHT22;59073;51.994;4.448;2022-12-07T06:29:38;3.75;78.47
71291;DHT22;59073;51.994;4.448;2022-12-07T06:32:04;3.70;78.85
71291;DHT22;59073;51.994;4.448;2022-12-07T06:34:30;3.72;79.39
71291;DHT22;59073;51.994;4.448;2022-12-07T06:37:01;3.86;79.49
71291;DHT22;59073;51.994;4.448;2022-12-07T06:39:28;3.93;79.51
71291;DHT22;59073;51.994;4.448;2022-12-07T06:41:54;3.93;79.63
71291;DHT22;59073;51.994;4.448;2022-12-07T06:44:21;4.03;79.81
71291;DHT22;59073;51.994;4.448;2022-12-07T06:46:47;4.09;79.89
71291;DHT22;59073;51.994;4.448;2022-12-07T06:49:13;4.10;79.93
71291;DHT22;59073;51.994;4.448;2022-12-07T06:51:38;4.07;80.08
71291;DHT22;59073;51.994;4.448;2022-12-07T06:54:14;4.15;80.21
71291;DHT22;59073;51.994;4.448;2022-12-07T06:56:40;4.23;80.50
71291;DHT22;59073;51.994;4.448;2022-12-07T06:59:27;4.47;80.67
71291;DHT22;59073;51.994;4.448;2022-12-07T07:02:09;4.57;80.43
71291;DHT22;59073;51.994;4.448;2022-12-07T07:04:35;4.61;80.01
71291;DHT22;59073;51.994;4.448;2022-12-07T07:07:00;4.56;79.88
71291;DHT22;59073;51.994;4.448;2022-12-07T07:09:25;4.63;80.14
71291;DHT22;59073;51.994;4.448;2022-12-07T07:11:51;4.65;79.98
71291;DHT22;59073;51.994;4.448;2022-12-07T07:14:16;4.71;80.20
71291;DHT22;59073;51.994;4.448;2022-12-07T07:16:44;4.84;80.00
71291;DHT22;59073;51.994;4.448;2022-12-07T07:19:09;4.77;79.57
71291;DHT22;59073;51.994;4.448;2022-12-07T07:21:36;4.63;79.70
71291;DHT22;59073;51.994;4.448;2022-12-07T07:24:01;4.56;79.99
71291;DHT22;59073;51.994;4.448;2022-12-07T07:26:27;4.46;79.16
71291;DHT22;59073;51.994;4.448;2022-12-07T07:28:52;4.57;82.30
71291;DHT22;59073;51.994;4.448;2022-12-07T07:31:17;4.63;82.51
71291;DHT22;59073;51.994;4.448;2022-12-07T07:33:45;5.09;82.15
71291;DHT22;59073;51.994;4.448;2022-12-07T07:36:11;5.55;80.30
71291;DHT22;59073;51.994;4.448;2022-12-07T07:38:36;5.73;79.77
71291;DHT22;59073;51.994;4.448;2022-12-07T07:41:02;5.76;79.72
71291;DHT22;59073;51.994;4.448;2022-12-07T07:43:27;5.80;80.32
71291;DHT22;59073;51.994;4.448;2022-12-07T07:45:53;5.91;80.99
71291;DHT22;59073;51.994;4.448;2022-12-07T07:48:18;5.91;80.90
71291;DHT22;59073;51.994;4.448;2022-12-07T07:50:44;6.00;81.41
71291;DHT22;59073;51.994;4.448;2022-12-07T07:53:09;5.94;80.91
71291;DHT22;59073;51.994;4.448;2022-12-07T07:55:34;6.01;81.02
71291;DHT22;59073;51.994;4.448;2022-12-07T07:58:00;6.17;80.78
71291;DHT22;59073;51.994;4.448;2022-12-07T08:00:25;6.32;80.53
71291;DHT22;59073;51.994;4.448;2022-12-07T08:02:51;6.44;80.11
71291;DHT22;59073;51.994;4.448;2022-12-07T08:05:16;6.46;79.99
71291;DHT22;59073;51.994;4.448;2022-12-07T08:07:42;6.58;79.59
71291;DHT22;59073;51.994;4.448;2022-12-07T08:10:11;6.76;79.09
71291;DHT22;59073;51.994;4.448;2022-12-07T08:12:39;6.89;78.53
71291;DHT22;59073;51.994;4.448;2022-12-07T08:15:26;7.00;78.29
71291;DHT22;59073;51.994;4.448;2022-12-07T08:17:52;7.07;78.13
71291;DHT22;59073;51.994;4.448;2022-12-07T08:20:17;7.13;77.92
71291;DHT22;59073;51.994;4.448;2022-12-07T08:22:43;7.16;77.79
71291;DHT22;59073;51.994;4.448;2022-12-07T08:25:08;7.18;77.58
71291;DHT22;59073;51.994;4.448;2022-12-07T08:27:34;7.07;77.09
71291;DHT22;59073;51.994;4.448;2022-12-07T08:30:12;6.92;77.06
71291;DHT22;59073;51.994;4.448;2022-12-07T08:32:38;6.83;77.24
71291;DHT22;59073;51.994;4.448;2022-12-07T08:35:08;6.72;77.09
71291;DHT22;59073;51.994;4.448;2022-12-07T08:37:45;6.41;77.98
71291;DHT22;59073;51.994;4.448;2022-12-07T08:40:18;6.15;79.21
71291;DHT22;59073;51.994;4.448;2022-12-07T08:43:12;6.29;79.38
71291;DHT22;59073;51.994;4.448;2022-12-07T08:45:43;6.58;79.33
71291;DHT22;59073;51.994;4.448;2022-12-07T08:48:29;6.87;78.82
71291;DHT22;59073;51.994;4.448;2022-12-07T08:50:54;6.59;78.85
71291;DHT22;59073;51.994;4.448;2022-12-07T08:53:21;6.65;79.29
71291;DHT22;59073;51.994;4.448;2022-12-07T09:02:37;7.32;78.21
71291;DHT22;59073;51.994;4.448;2022-12-07T09:05:56;7.40;77.50
71291;DHT22;59073;51.994;4.448;2022-12-07T09:45:02;8.29;77.77
71291;DHT22;59073;51.994;4.448;2022-12-07T09:52:03;8.88;77.57
71291;DHT22;59073;51.994;4.448;2022-12-07T09:54:30;9.36;80.38
71291;DHT22;59073;51.994;4.448;2022-12-07T09:57:18;9.93;78.43
71291;DHT22;59073;51.994;4.448;2022-12-07T10:00:06;10.75;77.87
71291;DHT22;59073;51.994;4.448;2022-12-07T10:06:01;11.81;73.75
71291;DHT22;59073;51.994;4.448;2022-12-07T10:08:35;11.85;72.88
71291;DHT22;59073;51.994;4.448;2022-12-07T10:11:09;11.71;73.39
71291;DHT22;59073;51.994;4.448;2022-12-07T10:13:41;11.79;72.87
71291;DHT22;59073;51.994;4.448;2022-12-07T10:16:30;11.91;72.05
71291;DHT22;59073;51.994;4.448;2022-12-07T10:19:27;11.85;68.25
71291;DHT22;59073;51.994;4.448;2022-12-07T10:22:28;11.40;70.99
71291;DHT22;59073;51.994;4.448;2022-12-07T10:24:53;11.44;72.36
71291;DHT22;59073;51.994;4.448;2022-12-07T10:27:35;11.27;72.58
71291;DHT22;59073;51.994;4.448;2022-12-07T10:30:07;11.34;73.19
71291;DHT22;59073;51.994;4.448;2022-12-07T10:32:39;11.45;71.66
71291;DHT22;59073;51.994;4.448;2022-12-07T10:35:26;10.82;71.03
71291;DHT22;59073;51.994;4.448;2022-12-07T10:37:53;10.37;72.50
71291;DHT22;59073;51.994;4.448;2022-12-07T10:40:36;10.12;72.88
71291;DHT22;59073;51.994;4.448;2022-12-07T10:45:27;9.98;71.75
71291;DHT22;59073;51.994;4.448;2022-12-07T10:50:45;10.04;71.77
71291;DHT22;59073;51.994;4.448;2022-12-07T10:56:19;9.11;69.20
71291;DHT22;59073;51.994;4.448;2022-12-07T11:01:45;9.28;70.62
71291;DHT22;59073;51.994;4.448;2022-12-07T11:23:42;8.85;71.50
71291;DHT22;59073;51.994;4.448;2022-12-07T11:31:52;8.99;72.00
71291;DHT22;59073;51.994;4.448;2022-12-07T11:37:21;7.17;78.81
71291;DHT22;59073;51.994;4.448;2022-12-07T11:40:02;5.14;83.39
71291;DHT22;59073;51.994;4.448;2022-12-07T11:42:44;4.94;87.34
71291;DHT22;59073;51.994;4.448;2022-12-07T11:45:34;5.18;87.77
71291;DHT22;59073;51.994;4.448;2022-12-07T11:48:11;5.43;87.56
71291;DHT22;59073;51.994;4.448;2022-12-07T11:50:45;5.83;87.51
71291;DHT22;59073;51.994;4.448;2022-12-07T11:53:18;6.27;86.42
71291;DHT22;59073;51.994;4.448;2022-12-07T11:59:02;6.96;84.24
71291;DHT22;59073;51.994;4.448;2022-12-07T12:06:40;7.21;82.80
71291;DHT22;59073;51.994;4.448;2022-12-07T12:15:04;7.58;82.40
71291;DHT22;59073;51.994;4.448;2022-12-07T12:17:39;7.68;82.68
71291;DHT22;59073;51.994;4.448;2022-12-07T12:23:01;7.90;81.15
71291;DHT22;59073;51.994;4.448;2022-12-07T12:30:45;8.40;81.07
71291;DHT22;59073;51.994;4.448;2022-12-07T12:33:23;8.64;78.63
71291;DHT22;59073;51.994;4.448;2022-12-07T12:36:17;8.98;79.00
71291;DHT22;59073;51.994;4.448;2022-12-07T12:46:57;8.29;78.05
71291;DHT22;59073;51.994;4.448;2022-12-07T12:51:57;8.51;77.07
71291;DHT22;59073;51.994;4.448;2022-12-07T12:54:32;8.58;76.17
71291;DHT22;59073;51.994;4.448;2022-12-07T12:57:15;8.71;77.53
71291;DHT22;59073;51.994;4.448;2022-12-07T12:59:57;9.16;78.25
71291;DHT22;59073;51.994;4.448;2022-12-07T13:02:30;9.08;77.14
71291;DHT22;59073;51.994;4.448;2022-12-07T13:18:03;6.56;78.25
71291;DHT22;59073;51.994;4.448;2022-12-07T13:21:39;6.42;78.98
71291;DHT22;59073;51.994;4.448;2022-12-07T13:26:23;6.61;78.90
71291;DHT22;59073;51.994;4.448;2022-12-07T13:31:47;6.95;78.10
71291;DHT22;59073;51.994;4.448;2022-12-07T13:37:00;7.58;79.37
71291;DHT22;59073;51.994;4.448;2022-12-07T13:45:14;8.05;76.27
71291;DHT22;59073;51.994;4.448;2022-12-07T13:48:03;8.22;76.86
71291;DHT22;59073;51.994;4.448;2022-12-07T13:50:37;8.19;75.46
71291;DHT22;59073;51.994;4.448;2022-12-07T13:53:12;8.41;75.97
71291;DHT22;59073;51.994;4.448;2022-12-07T13:55:52;8.47;75.46
71291;DHT22;59073;51.994;4.448;2022-12-07T13:58:22;8.61;76.23
71291;DHT22;59073;51.994;4.448;2022-12-07T14:00:54;8.60;75.32
71291;DHT22;59073;51.994;4.448;2022-12-07T14:03:32;8.70;74.78
71291;DHT22;59073;51.994;4.448;2022-12-07T14:08:40;8.34;74.26
71291;DHT22;59073;51.994;4.448;2022-12-07T14:11:19;8.41;75.69
71291;DHT22;59073;51.994;4.448;2022-12-07T14:16:29;7.92;75.91
71291;DHT22;59073;51.994;4.448;2022-12-07T14:18:59;7.83;76.07
71291;DHT22;59073;51.994;4.448;2022-12-07T14:21:29;7.78;76.86
71291;DHT22;59073;51.994;4.448;2022-12-07T14:24:19;7.61;75.93
71291;DHT22;59073;51.994;4.448;2022-12-07T14:26:48;7.57;76.69
71291;DHT22;59073;51.994;4.448;2022-12-07T14:29:31;7.64;76.53
71291;DHT22;59073;51.994;4.448;2022-12-07T14:32:25;7.79;76.20
71291;DHT22;59073;51.994;4.448;2022-12-07T14:34:59;8.02;76.54
71291;DHT22;59073;51.994;4.448;2022-12-07T14:37:25;8.26;76.74
71291;DHT22;59073;51.994;4.448;2022-12-07T14:39:51;8.41;77.19
71291;DHT22;59073;51.994;4.448;2022-12-07T14:42:17;8.50;77.07
71291;DHT22;59073;51.994;4.448;2022-12-07T14:44:43;8.54;76.84
71291;DHT22;59073;51.994;4.448;2022-12-07T14:47:10;8.58;76.79
71291;DHT22;59073;51.994;4.448;2022-12-07T14:49:36;8.63;76.96
71291;DHT22;59073;51.994;4.448;2022-12-07T14:52:01;8.70;76.86
71291;DHT22;59073;51.994;4.448;2022-12-07T14:54:31;8.74;76.34
71291;DHT22;59073;51.994;4.448;2022-12-07T14:56:57;8.47;76.50
71291;DHT22;59073;51.994;4.448;2022-12-07T14:59:23;8.36;76.82
71291;DHT22;59073;51.994;4.448;2022-12-07T15:01:49;8.36;76.80
71291;DHT22;59073;51.994;4.448;2022-12-07T15:04:14;8.33;77.33
71291;DHT22;59073;51.994;4.448;2022-12-07T15:06:39;8.44;77.38
71291;DHT22;59073;51.994;4.448;2022-12-07T15:09:05;8.44;77.42
71291;DHT22;59073;51.994;4.448;2022-12-07T15:11:30;8.43;77.53
71291;DHT22;59073;51.994;4.448;2022-12-07T15:13:56;8.43;77.36
71291;DHT22;59073;51.994;4.448;2022-12-07T15:16:35;8.37;77.41
71291;DHT22;59073;51.994;4.448;2022-12-07T15:19:01;8.33;77.24
71291;DHT22;59073;51.994;4.448;2022-12-07T15:21:27;8.26;77.37
71291;DHT22;59073;51.994;4.448;2022-12-07T15:23:53;8.19;77.28
71291;DHT22;59073;51.994;4.448;2022-12-07T15:26:19;8.23;76.86
71291;DHT22;59073;51.994;4.448;2022-12-07T15:28:44;8.17;76.62
71291;DHT22;59073;51.994;4.448;2022-12-07T15:31:14;8.03;76.97
71291;DHT22;59073;51.994;4.448;2022-12-07T15:33:40;8.00;77.21
71291;DHT22;59073;51.994;4.448;2022-12-07T15:36:06;7.88;77.58
71291;DHT22;59073;51.994;4.448;2022-12-07T15:38:32;7.75;77.82
71291;DHT22;59073;51.994;4.448;2022-12-07T15:40:57;7.74;78.01
71291;DHT22;59073;51.994;4.448;2022-12-07T15:43:23;7.75;77.72
71291;DHT22;59073;51.994;4.448;2022-12-07T15:46:07;7.52;78.07
71291;DHT22;59073;51.994;4.448;2022-12-07T15:48:33;7.32;78.13
71291;DHT22;59073;51.994;4.448;2022-12-07T15:51:06;7.17;78.08
71291;DHT22;59073;51.994;4.448;2022-12-07T15:53:33;7.11;77.70
71291;DHT22;59073;51.994;4.448;2022-12-07T15:55:59;6.90;75.60
71291;DHT22;59073;51.994;4.448;2022-12-07T15:58:25;6.85;74.47
71291;DHT22;59073;51.994;4.448;2022-12-07T16:00:51;6.87;74.31
71291;DHT22;59073;51.994;4.448;2022-12-07T16:03:16;6.87;73.90
71291;DHT22;59073;51.994;4.448;2022-12-07T16:05:42;6.92;72.89
71291;DHT22;59073;51.994;4.448;2022-12-07T16:08:13;6.86;72.37
71291;DHT22;59073;51.994;4.448;2022-12-07T16:10:38;6.90;72.74
71291;DHT22;59073;51.994;4.448;2022-12-07T16:13:07;6.87;72.82
71291;DHT22;59073;51.994;4.448;2022-12-07T16:15:32;6.93;73.84
71291;DHT22;59073;51.994;4.448;2022-12-07T16:17:57;7.01;74.32
71291;DHT22;59073;51.994;4.448;2022-12-07T16:20:23;7.04;74.20
71291;DHT22;59073;51.994;4.448;2022-12-07T16:22:51;7.08;74.67
71291;DHT22;59073;51.994;4.448;2022-12-07T16:25:17;7.11;74.80
71291;DHT22;59073;51.994;4.448;2022-12-07T16:27:43;7.23;75.39
71291;DHT22;59073;51.994;4.448;2022-12-07T16:30:08;7.28;75.89
71291;DHT22;59073;51.994;4.448;2022-12-07T16:32:34;7.32;75.65
71291;DHT22;59073;51.994;4.448;2022-12-07T16:34:59;7.30;75.54
71291;DHT22;59073;51.994;4.448;2022-12-07T16:37:25;7.26;76.21
71291;DHT22;59073;51.994;4.448;2022-12-07T16:39:50;7.27;75.97
71291;DHT22;59073;51.994;4.448;2022-12-07T16:42:16;7.11;76.43
71291;DHT22;59073;51.994;4.448;2022-12-07T16:44:41;7.20;76.74
71291;DHT22;59073;51.994;4.448;2022-12-07T16:47:06;7.20;76.86
71291;DHT22;59073;51.994;4.448;2022-12-07T16:49:32;7.23;76.92
71291;DHT22;59073;51.994;4.448;2022-12-07T16:51:57;7.24;77.12
71291;DHT22;59073;51.994;4.448;2022-12-07T16:54:23;7.24;77.09
71291;DHT22;59073;51.994;4.448;2022-12-07T16:56:48;7.28;76.79
71291;DHT22;59073;51.994;4.448;2022-12-07T16:59:13;7.37;76.94
71291;DHT22;59073;51.994;4.448;2022-12-07T17:01:39;7.41;76.78
71291;DHT22;59073;51.994;4.448;2022-12-07T17:04:04;7.43;76.47
71291;DHT22;59073;51.994;4.448;2022-12-07T17:06:30;7.41;76.57
71291;DHT22;59073;51.994;4.448;2022-12-07T17:08:56;7.45;76.71
71291;DHT22;59073;51.994;4.448;2022-12-07T17:11:27;7.48;76.39
71291;DHT22;59073;51.994;4.448;2022-12-07T17:13:54;7.35;76.92
71291;DHT22;59073;51.994;4.448;2022-12-07T17:16:38;6.95;76.97
71291;DHT22;59073;51.994;4.448;2022-12-07T17:19:07;6.99;78.17
71291;DHT22;59073;51.994;4.448;2022-12-07T17:21:33;7.01;77.87
71291;DHT22;59073;51.994;4.448;2022-12-07T17:24:00;7.01;77.57
71291;DHT22;59073;51.994;4.448;2022-12-07T17:26:27;7.10;77.76
71291;DHT22;59073;51.994;4.448;2022-12-07T17:29:16;7.10;77.60
71291;DHT22;59073;51.994;4.448;2022-12-07T17:31:50;6.89;77.71
71291;DHT22;59073;51.994;4.448;2022-12-07T17:34:15;6.89;78.34
71291;DHT22;59073;51.994;4.448;2022-12-07T17:36:42;6.83;76.89
71291;DHT22;59073;51.994;4.448;2022-12-07T17:39:11;6.80;76.60
71291;DHT22;59073;51.994;4.448;2022-12-07T17:41:40;6.73;76.64
71291;DHT22;59073;51.994;4.448;2022-12-07T17:44:24;6.90;76.84
71291;DHT22;59073;51.994;4.448;2022-12-07T17:46:52;7.00;76.70
71291;DHT22;59073;51.994;4.448;2022-12-07T17:49:24;7.08;75.86
71291;DHT22;59073;51.994;4.448;2022-12-07T17:51:49;6.99;75.79
71291;DHT22;59073;51.994;4.448;2022-12-07T17:54:33;7.03;76.58
71291;DHT22;59073;51.994;4.448;2022-12-07T17:56:59;7.06;76.62
71291;DHT22;59073;51.994;4.448;2022-12-07T17:59:24;7.01;77.39
71291;DHT22;59073;51.994;4.448;2022-12-07T18:01:50;7.11;77.57
71291;DHT22;59073;51.994;4.448;2022-12-07T18:04:15;7.18;77.18
71291;DHT22;59073;51.994;4.448;2022-12-07T18:06:41;7.18;77.34
71291;DHT22;59073;51.994;4.448;2022-12-07T18:09:08;7.01;77.09
71291;DHT22;59073;51.994;4.448;2022-12-07T18:11:34;6.99;77.42
71291;DHT22;59073;51.994;4.448;2022-12-07T18:13:59;6.86;77.44
71291;DHT22;59073;51.994;4.448;2022-12-07T18:16:27;6.83;77.90
71291;DHT22;59073;51.994;4.448;2022-12-07T18:18:53;6.71;77.98
71291;DHT22;59073;51.994;4.448;2022-12-07T18:21:24;6.85;78.59
71291;DHT22;59073;51.994;4.448;2022-12-07T18:23:53;6.95;78.25
71291;DHT22;59073;51.994;4.448;2022-12-07T18:26:21;6.97;78.12
71291;DHT22;59073;51.994;4.448;2022-12-07T18:28:47;7.06;77.95
71291;DHT22;59073;51.994;4.448;2022-12-07T18:31:13;7.16;77.77
71291;DHT22;59073;51.994;4.448;2022-12-07T18:33:40;7.21;76.93
71291;DHT22;59073;51.994;4.448;2022-12-07T18:36:06;6.95;77.63
71291;DHT22;59073;51.994;4.448;2022-12-07T18:38:32;6.48;79.79
71291;DHT22;59073;51.994;4.448;2022-12-07T18:40:58;6.07;81.88
71291;DHT22;59073;51.994;4.448;2022-12-07T18:43:25;5.84;82.76
71291;DHT22;59073;51.994;4.448;2022-12-07T18:45:51;5.70;83.47
71291;DHT22;59073;51.994;4.448;2022-12-07T18:48:19;5.59;83.86
71291;DHT22;59073;51.994;4.448;2022-12-07T18:50:47;5.60;83.63
71291;DHT22;59073;51.994;4.448;2022-12-07T18:53:13;5.78;83.14
71291;DHT22;59073;51.994;4.448;2022-12-07T18:55:39;5.90;82.84
71291;DHT22;59073;51.994;4.448;2022-12-07T18:58:05;6.17;82.27
71291;DHT22;59073;51.994;4.448;2022-12-07T19:01:12;6.38;81.84
71291;DHT22;59073;51.994;4.448;2022-12-07T19:03:46;6.44;80.61
71291;DHT22;59073;51.994;4.448;2022-12-07T19:06:49;6.71;80.79
71291;DHT22;59073;51.994;4.448;2022-12-07T19:13:43;6.99;80.38
71291;DHT22;59073;51.994;4.448;2022-12-07T19:16:42;7.00;80.02
71291;DHT22;59073;51.994;4.448;2022-12-07T19:19:34;6.87;79.58
71291;DHT22;59073;51.994;4.448;2022-12-07T19:22:30;6.49;80.34
71291;DHT22;59073;51.994;4.448;2022-12-07T19:25:39;6.32;80.39
71291;DHT22;59073;51.994;4.448;2022-12-07T19:28:53;6.52;80.71
71291;DHT22;59073;51.994;4.448;2022-12-07T19:35:34;6.72;80.12
71291;DHT22;59073;51.994;4.448;2022-12-07T19:41:54;6.86;79.92
71291;DHT22;59073;51.994;4.448;2022-12-07T19:44:38;6.90;79.94
71291;DHT22;59073;51.994;4.448;2022-12-07T19:53:39;6.87;78.88
71291;DHT22;59073;51.994;4.448;2022-12-07T19:59:17;6.75;79.06
71291;DHT22;59073;51.994;4.448;2022-12-07T20:01:53;6.56;79.79
71291;DHT22;59073;51.994;4.448;2022-12-07T20:04:32;6.45;80.32
71291;DHT22;59073;51.994;4.448;2022-12-07T20:10:06;6.64;80.29
71291;DHT22;59073;51.994;4.448;2022-12-07T20:16:59;6.61;79.93
71291;DHT22;59073;51.994;4.448;2022-12-07T20:19:47;6.58;79.82
71291;DHT22;59073;51.994;4.448;2022-12-07T20:23:03;6.55;79.37
71291;DHT22;59073;51.994;4.448;2022-12-07T20:25:28;6.53;79.41
71291;DHT22;59073;51.994;4.448;2022-12-07T20:27:54;6.45;79.45
71291;DHT22;59073;51.994;4.448;2022-12-07T20:37:01;6.36;79.16
71291;DHT22;59073;51.994;4.448;2022-12-07T20:40:04;6.31;79.47
71291;DHT22;59073;51.994;4.448;2022-12-07T20:42:56;6.28;79.54
71291;DHT22;59073;51.994;4.448;2022-12-07T20:45:52;6.25;79.75
71291;DHT22;59073;51.994;4.448;2022-12-07T20:48:23;6.25;80.07
71291;DHT22;59073;51.994;4.448;2022-12-07T20:54:42;6.27;80.18
71291;DHT22;59073;51.994;4.448;2022-12-07T21:01:17;5.94;82.00
71291;DHT22;59073;51.994;4.448;2022-12-07T21:04:02;5.94;82.58
71291;DHT22;59073;51.994;4.448;2022-12-07T21:09:43;6.14;82.26
71291;DHT22;59073;51.994;4.448;2022-12-07T21:12:32;6.15;82.42
71291;DHT22;59073;51.994;4.448;2022-12-07T21:21:56;6.29;82.36
71291;DHT22;59073;51.994;4.448;2022-12-07T21:25:26;6.10;83.39
71291;DHT22;59073;51.994;4.448;2022-12-07T21:35:11;6.29;82.72
71291;DHT22;59073;51.994;4.448;2022-12-07T21:37:36;6.29;82.71
71291;DHT22;59073;51.994;4.448;2022-12-07T21:40:04;6.34;82.43
71291;DHT22;59073;51.994;4.448;2022-12-07T21:42:30;6.35;82.50
71291;DHT22;59073;51.994;4.448;2022-12-07T21:44:58;6.46;81.98
71291;DHT22;59073;51.994;4.448;2022-12-07T21:47:39;6.46;81.81
71291;DHT22;59073;51.994;4.448;2022-12-07T21:50:09;6.48;81.82
71291;DHT22;59073;51.994;4.448;2022-12-07T21:52:52;6.49;81.48
71291;DHT22;59073;51.994;4.448;2022-12-07T21:55:27;6.49;81.44
71291;DHT22;59073;51.994;4.448;2022-12-07T21:58:11;6.48;80.87
71291;DHT22;59073;51.994;4.448;2022-12-07T22:01:06;6.36;80.73
71291;DHT22;59073;51.994;4.448;2022-12-07T22:04:00;6.25;80.84
71291;DHT22;59073;51.994;4.448;2022-12-07T22:10:33;6.03;81.35
71291;DHT22;59073;51.994;4.448;2022-12-07T22:13:22;5.96;81.35
71291;DHT22;59073;51.994;4.448;2022-12-07T22:16:13;5.90;81.69
71291;DHT22;59073;51.994;4.448;2022-12-07T22:18:41;5.96;81.75
71291;DHT22;59073;51.994;4.448;2022-12-07T22:21:28;6.03;81.33
71291;DHT22;59073;51.994;4.448;2022-12-07T22:24:17;6.04;81.37
71291;DHT22;59073;51.994;4.448;2022-12-07T22:27:07;6.05;81.17
71291;DHT22;59073;51.994;4.448;2022-12-07T22:30:10;5.86;81.51